Terminal Aerodrome Forecast
Issued by NWS Wilmington, OH

Current Version | Previous Version | Graphics & Text | Print | Product List | Glossary On
Versions: 1 2 3 4 5 6 7 8 9 10 11 12 13 14 15 16 17 18 19 20 21 22 23
000
FTUS41 KILN 042000 AAA
TAFCVG
TAF AMD
KCVG 042055Z 0421/0524 23007KT P6SM SCT060 BKN120
     FM050000 21005KT P6SM VCTS BKN060CB
     FM050400 21005KT P6SM FEW070 BKN150
     FM051500 22010KT P6SM SCT050=

USA.gov is the U.S. government's official web portal to all federal, state and local government web resources and services.